Time;durP1;ratioP1;P1;durP2;ratioP2;P2;SDS_P1;SDS_P2;PMS_P1;PMS_P2;Temp;Humidity;BMP_temperature;BMP_pressure;BME280_temperature;BME280_humidity;BME280_pressure;Samples;Min_cycle;Max_cycle;Signal;HPM_P1;HPM_P2
2021/04/06 00:01:31;;;;;;;9.93;2.15;;;;;;;-144.99;98.83;52399.19;4678448;28;10000017;-72
2021/04/06 00:03:59;;;;;;;5.40;1.67;;;;;;;-144.99;98.97;52374.72;5022220;28;20317;-73
2021/04/06 00:06:26;;;;;;;4.07;1.67;;;;;;;-144.99;99.09;52386.94;5025955;28;20656;-72
2021/04/06 00:08:52;;;;;;;5.97;2.37;;;;;;;-144.99;99.08;52403.25;5024133;28;20699;-73
2021/04/06 00:11:20;;;;;;;4.80;1.40;;;;;;;-144.99;99.07;52329.88;5029717;28;20632;-75
2021/04/06 00:13:48;;;;;;;4.57;1.43;;;;;;;-144.99;98.96;52368.59;5028495;28;20980;-75
2021/04/06 00:16:15;;;;;;;11.57;1.63;;;;;;;-144.99;98.81;52331.91;5023353;28;20621;-74
2021/04/06 00:18:42;;;;;;;8.70;1.33;;;;;;;-144.99;98.62;52382.88;5029358;28;20705;-74
2021/04/06 00:21:11;;;;;;;10.57;1.63;;;;;;;-144.99;98.46;52366.56;5021983;28;20653;-76
2021/04/06 00:23:38;;;;;;;6.93;2.87;;;;;;;-144.99;98.36;52382.88;5030111;28;20628;-77
2021/04/06 00:26:06;;;;;;;12.53;2.43;;;;;;;-144.99;98.07;52366.56;5017051;28;20656;-75
2021/04/06 00:28:36;;;;;;;9.73;1.63;;;;;;;-144.99;98.08;52374.72;5031076;28;20617;-75
2021/04/06 00:31:06;;;;;;;6.27;1.63;;;;;;;-144.99;98.08;52407.31;5026421;28;20682;-74
2021/04/06 00:33:36;;;;;;;4.30;1.90;;;;;;;-144.99;97.90;52346.19;5032452;28;20630;-74
2021/04/06 00:36:03;;;;;;;5.53;0.80;;;;;;;-144.99;98.11;52382.88;5022338;28;20956;-74
2021/04/06 00:38:32;;;;;;;3.23;1.53;;;;;;;-144.99;98.21;52342.09;5031291;28;20621;-76
2021/04/06 00:41:02;;;;;;;4.43;1.43;;;;;;;-144.99;98.40;52364.53;5023344;28;21012;-75
2021/04/06 00:43:33;;;;;;;7.97;1.80;;;;;;;-144.99;98.36;52366.56;5030063;28;20988;-77
2021/04/06 00:45:59;;;;;;;2.37;0.57;;;;;;;-144.99;98.35;52352.28;5020583;28;20661;-77
2021/04/06 00:48:26;;;;;;;4.40;1.97;;;;;;;-144.99;98.73;52358.41;5015348;28;20628;-76
2021/04/06 00:51:10;;;;;;;5.87;1.37;;;;;;;-144.99;98.73;52366.56;5029810;28;20988;-74
2021/04/06 00:53:54;;;;;;;6.13;1.60;;;;;;;-144.99;98.83;52358.41;5025752;28;20592;-73
2021/04/06 00:56:23;;;;;;;7.03;2.97;;;;;;;-144.99;99.06;52350.25;5025408;28;20664;-76
2021/04/06 00:58:50;;;;;;;5.50;1.87;;;;;;;-144.99;99.28;52395.09;5030287;28;20664;-77
2021/04/06 01:01:24;;;;;;;8.17;4.20;;;;;;;-144.99;99.34;52354.34;5030137;28;20652;-76
2021/04/06 01:03:52;;;;;;;8.00;1.90;;;;;;;-144.99;99.28;52384.91;5026961;28;20670;-76
2021/04/06 01:06:17;;;;;;;7.17;2.30;;;;;;;-144.99;99.38;52391.03;5027680;28;21245;-80
2021/04/06 01:08:43;;;;;;;16.10;2.90;;;;;;;-144.99;99.51;52378.78;5030862;28;20641;-78
2021/04/06 01:11:10;;;;;;;13.03;2.50;;;;;;;-144.99;99.58;52370.63;5029866;28;20235;-78
2021/04/06 01:13:36;;;;;;;9.47;1.73;;;;;;;-144.99;99.70;52360.44;5029305;28;20701;-77
2021/04/06 01:16:03;;;;;;;5.90;1.53;;;;;;;-144.99;99.93;52362.50;5024449;28;21018;-78
2021/04/06 01:18:30;;;;;;;12.93;1.97;;;;;;;-144.99;100.00;52366.56;5026430;28;20632;-77
2021/04/06 01:20:58;;;;;;;10.17;2.17;;;;;;;-144.99;99.96;52342.09;5023125;28;20635;-77
2021/04/06 01:23:26;;;;;;;4.37;2.27;;;;;;;-144.99;100.00;52366.56;5025306;28;20694;-77
2021/04/06 01:25:55;;;;;;;7.93;2.50;;;;;;;-144.99;99.92;52329.88;5026896;28;20662;-78
2021/04/06 01:28:22;;;;;;;5.73;1.17;;;;;;;-144.99;100.00;52403.25;5021768;28;20624;-79
2021/04/06 01:30:50;;;;;;;6.43;2.37;;;;;;;-144.99;100.00;52338.03;5026860;28;20623;-79
2021/04/06 01:33:18;;;;;;;5.40;2.93;;;;;;;-144.99;100.00;52370.63;5023242;28;21185;-80
2021/04/06 01:35:45;;;;;;;7.97;2.47;;;;;;;-144.99;100.00;52370.63;5030549;28;21154;-78
2021/04/06 01:38:12;;;;;;;1.73;1.00;;;;;;;-144.99;100.00;52370.63;5029640;28;20640;-79
2021/04/06 01:40:39;;;;;;;3.43;1.47;;;;;;;-144.99;100.00;52358.41;5030608;28;20616;-78
2021/04/06 01:43:06;;;;;;;6.67;1.77;;;;;;;-144.99;100.00;52344.16;5027567;28;20637;-76
2021/04/06 01:45:33;;;;;;;5.10;1.30;;;;;;;-144.99;100.00;52403.25;5019890;28;20675;-79
2021/04/06 01:48:00;;;;;;;3.97;1.50;;;;;;;-144.99;100.00;52427.72;5023800;28;20767;-77
2021/04/06 01:50:26;;;;;;;10.30;1.57;;;;;;;-144.99;100.00;52350.25;5021814;28;20648;-77
2021/04/06 01:52:53;;;;;;;11.40;1.97;;;;;;;-144.99;100.00;52348.22;5020174;28;20625;-78
2021/04/06 01:55:30;;;;;;;9.37;1.47;;;;;;;-144.99;100.00;52338.03;5011827;28;20692;-78
2021/04/06 01:57:57;;;;;;;3.43;1.60;;;;;;;-144.99;100.00;52374.72;5023709;28;20629;-77
2021/04/06 02:00:32;;;;;;;3.43;1.63;;;;;;;-144.99;100.00;52362.50;5021698;28;20661;-77
2021/04/06 02:03:03;;;;;;;5.03;1.23;;;;;;;-144.99;99.93;52370.63;5021677;28;20624;-79
2021/04/06 02:05:29;;;;;;;4.80;1.73;;;;;;;-144.99;99.75;52391.03;5016986;28;20641;-78
2021/04/06 02:08:00;;;;;;;3.97;1.47;;;;;;;-144.99;99.79;52407.31;5016924;28;20782;-81
2021/04/06 02:10:26;;;;;;;2.30;0.90;;;;;;;-144.99;99.72;52374.72;5026088;28;20660;-77
2021/04/06 02:12:52;;;;;;;8.17;1.43;;;;;;;-144.99;99.86;52378.78;5022535;28;20628;-76
2021/04/06 02:15:19;;;;;;;4.33;1.67;;;;;;;-144.99;100.00;52358.41;5037127;28;20731;-77
2021/04/06 02:17:50;;;;;;;7.50;1.40;;;;;;;-144.99;100.00;52386.94;5042012;28;20206;-80
2021/04/06 02:20:20;;;;;;;7.60;1.23;;;;;;;-144.99;100.00;52374.72;5047078;28;20666;-81
2021/04/06 02:23:04;;;;;;;3.23;1.50;;;;;;;-144.99;100.00;52378.78;5042738;28;20995;-77
2021/04/06 02:25:31;;;;;;;7.57;1.40;;;;;;;-144.99;100.00;52338.03;5028110;28;21046;-74
2021/04/06 02:27:58;;;;;;;11.40;2.20;;;;;;;-144.99;100.00;52384.91;5028963;28;20660;-74
2021/04/06 02:30:30;;;;;;;3.53;2.33;;;;;;;-144.99;100.00;52378.78;5028202;28;21019;-74
2021/04/06 02:32:57;;;;;;;13.47;2.30;;;;;;;-144.99;100.00;52380.84;5020053;28;20626;-77
2021/04/06 02:35:23;;;;;;;3.53;1.77;;;;;;;-144.99;100.00;52399.19;5029433;28;20632;-74
2021/04/06 02:37:49;;;;;;;3.43;2.00;;;;;;;-144.99;100.00;52366.56;5015095;28;20626;-75
2021/04/06 02:40:18;;;;;;;8.20;2.50;;;;;;;-144.99;100.00;52346.19;5029827;28;20992;-75
2021/04/06 02:42:46;;;;;;;6.60;2.23;;;;;;;-144.99;100.00;52362.50;5023910;28;20712;-70
2021/04/06 02:45:14;;;;;;;5.63;1.97;;;;;;;-144.99;100.00;52366.56;5027851;28;20620;-73
2021/04/06 02:47:49;;;;;;;5.50;2.00;;;;;;;-144.99;100.00;52399.19;5017200;28;20693;-71
2021/04/06 02:50:18;;;;;;;13.20;2.60;;;;;;;-144.99;100.00;52378.78;5029089;28;20696;-72
2021/04/06 02:52:45;;;;;;;8.53;2.67;;;;;;;-144.99;100.00;52374.72;5019525;28;20774;-73
2021/04/06 02:55:12;;;;;;;13.93;3.03;;;;;;;-144.99;100.00;52366.56;5025386;28;20720;-74
2021/04/06 02:57:43;;;;;;;7.50;2.20;;;;;;;-144.99;100.00;52374.72;5023260;28;20644;-71
2021/04/06 03:00:10;;;;;;;11.47;5.13;;;;;;;-144.99;100.00;52350.25;5025873;28;21217;-72
2021/04/06 03:02:39;;;;;;;15.70;4.30;;;;;;;-144.99;100.00;52342.09;5028879;28;21016;-71
2021/04/06 03:05:07;;;;;;;4.90;1.60;;;;;;;-144.99;100.00;52346.19;5030297;28;20632;-73
2021/04/06 03:07:44;;;;;;;8.83;2.33;;;;;;;-144.99;100.00;52395.09;5028019;28;20702;-73
2021/04/06 03:10:18;;;;;;;10.67;3.93;;;;;;;-144.99;100.00;52366.56;5032755;28;20656;-77
2021/04/06 03:12:46;;;;;;;13.37;2.97;;;;;;;-144.99;100.00;52413.44;5031005;28;21078;-76
2021/04/06 03:15:14;;;;;;;9.23;2.43;;;;;;;-144.99;100.00;52301.34;5029046;28;21171;-74
2021/04/06 03:17:45;;;;;;;9.33;1.97;;;;;;;-144.99;100.00;52333.94;5030897;28;21170;-72
2021/04/06 03:20:13;;;;;;;7.30;2.03;;;;;;;-144.99;100.00;52333.94;5022843;28;21311;-73
2021/04/06 03:22:39;;;;;;;5.37;1.97;;;;;;;-144.99;100.00;52391.03;5019167;28;20621;-72
2021/04/06 03:25:06;;;;;;;8.83;2.43;;;;;;;-144.99;100.00;52358.41;5030714;28;20629;-71
2021/04/06 03:27:33;;;;;;;5.20;1.97;;;;;;;-144.99;100.00;52386.94;5032633;28;20648;-74
2021/04/06 03:30:01;;;;;;;7.80;2.20;;;;;;;-144.99;100.00;52338.03;5022453;28;21287;-74
2021/04/06 03:32:27;;;;;;;8.67;2.90;;;;;;;-144.99;100.00;52338.03;5028377;28;20671;-75
2021/04/06 03:34:54;;;;;;;7.80;2.27;;;;;;;-144.99;100.00;52350.25;5025520;28;21197;-75
2021/04/06 03:37:22;;;;;;;10.73;2.73;;;;;;;-144.99;100.00;52395.09;5023345;28;20731;-75
2021/04/06 03:39:48;;;;;;;10.33;3.30;;;;;;;-144.99;100.00;52374.72;5027086;28;20755;-75
2021/04/06 03:42:22;;;;;;;7.97;3.00;;;;;;;-144.99;100.00;52358.41;5012681;28;21023;-74
2021/04/06 03:44:48;;;;;;;4.57;2.50;;;;;;;-144.99;100.00;52354.34;5024448;28;20636;-74
2021/04/06 03:47:14;;;;;;;11.63;3.90;;;;;;;-144.99;100.00;52338.03;5031885;28;21109;-75
2021/04/06 03:49:47;;;;;;;6.10;2.27;;;;;;;-144.99;100.00;52327.84;5031571;28;20226;-76
2021/04/06 03:52:13;;;;;;;12.50;3.27;;;;;;;-144.99;100.00;52378.78;5024187;28;20203;-76
2021/04/06 03:54:45;;;;;;;6.10;2.23;;;;;;;-144.99;100.00;52370.63;5029032;28;20637;-77
2021/04/06 03:57:22;;;;;;;9.10;2.20;;;;;;;-144.99;100.00;52378.78;5031033;28;20620;-77
2021/04/06 03:59:49;;;;;;;16.53;3.50;;;;;;;-144.99;100.00;52399.19;5030634;28;20706;-75
2021/04/06 04:02:15;;;;;;;8.60;2.43;;;;;;;-144.99;100.00;52354.34;5020461;28;21088;-76
2021/04/06 04:04:42;;;;;;;9.17;1.83;;;;;;;-144.99;100.00;52382.88;5030371;28;20628;-76
2021/04/06 04:07:08;;;;;;;7.20;2.90;;;;;;;-144.99;100.00;52313.56;5026170;28;20980;-75
2021/04/06 04:09:34;;;;;;;5.30;2.13;;;;;;;-144.99;100.00;52370.63;5031466;28;20713;-76
2021/04/06 04:12:01;;;;;;;10.50;2.27;;;;;;;-144.99;100.00;52348.22;5030855;28;20636;-76
2021/04/06 04:14:27;;;;;;;11.50;2.70;;;;;;;-144.99;100.00;52356.38;5032074;28;20202;-77
2021/04/06 04:16:53;;;;;;;13.20;4.73;;;;;;;-144.99;100.00;52399.19;5021872;28;20653;-76
2021/04/06 04:19:19;;;;;;;6.50;1.97;;;;;;;-144.99;100.00;52350.25;5031559;28;21087;-73
2021/04/06 04:21:45;;;;;;;13.50;4.77;;;;;;;-144.99;100.00;52399.19;5018482;28;20664;-74
2021/04/06 04:24:11;;;;;;;10.33;2.40;;;;;;;-144.99;100.00;52342.09;5031695;28;20671;-72
2021/04/06 04:26:37;;;;;;;16.67;2.60;;;;;;;-144.99;100.00;52386.94;5029193;28;20230;-72
2021/04/06 04:29:04;;;;;;;10.70;2.63;;;;;;;-144.99;100.00;52378.78;5032559;28;21115;-74
2021/04/06 04:31:30;;;;;;;9.50;2.83;;;;;;;-144.99;100.00;52378.78;5028599;28;20563;-72
2021/04/06 04:33:56;;;;;;;10.23;4.47;;;;;;;-144.99;100.00;52342.09;5023574;28;20613;-73
2021/04/06 04:36:22;;;;;;;8.90;2.30;;;;;;;-144.99;100.00;52354.34;5030587;28;20609;-75
2021/04/06 04:38:48;;;;;;;6.83;2.23;;;;;;;-144.99;100.00;52338.03;5023423;28;20815;-75
2021/04/06 04:41:14;;;;;;;12.97;3.13;;;;;;;-144.99;100.00;52366.56;5026325;28;20206;-74
2021/04/06 04:43:41;;;;;;;9.00;4.00;;;;;;;-144.99;100.00;52354.34;5031161;28;20625;-76
2021/04/06 04:46:08;;;;;;;12.73;3.17;;;;;;;-144.99;100.00;52370.63;5019592;28;20211;-75
2021/04/06 04:48:37;;;;;;;23.03;5.10;;;;;;;-144.99;100.00;52374.72;5030302;28;20664;-74
2021/04/06 04:51:03;;;;;;;14.70;2.37;;;;;;;-144.99;100.00;52382.88;5031189;28;20620;-74
2021/04/06 04:53:29;;;;;;;16.00;3.10;;;;;;;-144.99;100.00;52301.34;5023349;28;20637;-75
2021/04/06 04:55:55;;;;;;;19.33;4.10;;;;;;;-144.99;100.00;52329.88;5018429;28;20602;-75
2021/04/06 04:58:21;;;;;;;24.80;3.20;;;;;;;-144.99;100.00;52362.50;5018098;28;20277;-73
2021/04/06 05:00:47;;;;;;;7.37;2.93;;;;;;;-144.99;100.00;52333.94;5027679;28;20695;-75
2021/04/06 05:03:14;;;;;;;12.63;3.87;;;;;;;-144.99;100.00;52380.84;5026891;28;20633;-73
2021/04/06 05:05:40;;;;;;;12.70;4.20;;;;;;;-144.99;100.00;52354.34;5021069;28;20667;-73
2021/04/06 05:08:06;;;;;;;12.30;3.43;;;;;;;-144.99;100.00;52325.81;5029113;28;20644;-72
2021/04/06 05:10:32;;;;;;;12.73;4.50;;;;;;;-144.99;100.00;52348.22;5029223;28;20272;-72
2021/04/06 05:12:58;;;;;;;7.97;3.37;;;;;;;-144.99;100.00;52333.94;5022756;28;20206;-72
2021/04/06 05:15:24;;;;;;;11.40;3.63;;;;;;;-144.99;100.00;52329.88;5029540;28;20217;-71
2021/04/06 05:17:50;;;;;;;16.03;3.73;;;;;;;-144.99;100.00;52329.88;5030381;28;20194;-72
2021/04/06 05:20:17;;;;;;;13.37;2.90;;;;;;;-144.99;100.00;52344.16;5020584;28;20257;-71
2021/04/06 05:22:58;;;;;;;9.63;2.71;;;;;;;-144.99;100.00;52317.66;4510072;28;10255845;-73
2021/04/06 05:25:24;;;;;;;9.90;3.23;;;;;;;-144.99;100.00;52342.09;5021905;28;20201;-71
2021/04/06 05:27:50;;;;;;;13.70;2.37;;;;;;;-144.99;100.00;52354.34;5027433;28;20652;-72
2021/04/06 05:30:17;;;;;;;6.37;2.80;;;;;;;-144.99;99.01;52317.66;5025213;28;20615;-73
2021/04/06 05:32:43;;;;;;;8.83;2.43;;;;;;;-144.99;97.88;52346.19;5027396;28;20620;-72
2021/04/06 05:35:10;;;;;;;9.23;1.97;;;;;;;-144.99;97.90;52350.25;5023381;28;20723;-72
2021/04/06 05:37:37;;;;;;;9.50;2.27;;;;;;;-144.99;96.60;52276.88;5012009;28;20202;-71
2021/04/06 05:40:05;;;;;;;8.70;1.87;;;;;;;-144.99;93.83;52366.56;5023747;28;21243;-71
2021/04/06 05:42:31;;;;;;;8.70;2.80;;;;;;;-144.99;94.43;52350.25;5023816;28;20628;-71
2021/04/06 05:47:37;;;;;;;6.23;2.90;;;;;;;-144.99;93.08;52354.34;5017474;28;20684;-74
2021/04/06 05:50:04;;;;;;;2.97;1.93;;;;;;;-144.99;92.57;52325.81;5025255;28;20632;-72
2021/04/06 05:52:30;;;;;;;17.17;3.83;;;;;;;-144.99;91.23;52366.56;5026682;28;20667;-73
2021/04/06 05:54:58;;;;;;;9.47;3.00;;;;;;;-144.99;90.86;52307.47;5026048;28;21224;-74
2021/04/06 05:57:24;;;;;;;20.50;4.00;;;;;;;-144.99;91.30;52301.34;5018613;28;20759;-74
2021/04/06 05:59:50;;;;;;;6.23;1.63;;;;;;;-144.99;92.08;52350.25;5017866;28;20628;-75
2021/04/06 06:02:16;;;;;;;16.70;2.70;;;;;;;-144.99;94.50;52333.94;5028262;28;20714;-73
2021/04/06 06:04:42;;;;;;;4.50;2.50;;;;;;;-144.99;95.61;52329.88;5024760;28;21200;-75
2021/04/06 06:07:08;;;;;;;16.50;2.07;;;;;;;-144.99;97.24;52368.59;5027584;28;20672;-73
2021/04/06 06:09:35;;;;;;;7.37;1.50;;;;;;;-144.99;97.67;52403.25;5026752;28;20640;-74
2021/04/06 06:12:05;;;;;;;3.50;1.17;;;;;;;-144.99;98.54;52366.56;5022277;28;20632;-73
2021/04/06 06:14:33;;;;;;;10.03;1.57;;;;;;;-144.99;98.88;52350.25;5024925;28;20647;-74
2021/04/06 06:17:13;;;;;;;3.37;1.00;;;;;;;-144.99;98.70;52382.88;5021685;28;20657;-72
2021/04/06 06:19:39;;;;;;;5.13;3.43;;;;;;;-144.99;99.03;52370.63;5027305;28;21052;-74
2021/04/06 06:22:14;;;;;;;4.10;1.77;;;;;;;-144.99;99.58;52354.34;5025962;28;20643;-75
2021/04/06 06:24:43;;;;;;;7.43;1.23;;;;;;;-144.99;99.64;52346.19;5022636;28;20651;-74
2021/04/06 06:27:24;;;;;;;5.17;1.33;;;;;;;-144.99;100.00;52399.19;5025582;28;20684;-72
2021/04/06 06:29:50;;;;;;;3.27;0.70;;;;;;;-144.99;100.00;52333.94;5026999;28;20633;-72
2021/04/06 06:32:21;;;;;;;5.13;1.83;;;;;;;-144.99;100.00;52362.50;5016145;28;21178;-74
2021/04/06 06:34:48;;;;;;;2.83;1.53;;;;;;;-144.99;99.92;52346.19;5025600;28;20617;-74
2021/04/06 06:37:18;;;;;;;3.80;1.10;;;;;;;-144.99;99.67;52354.34;5016011;28;20680;-73
2021/04/06 06:39:59;;;;;;;4.47;1.77;;;;;;;-144.99;98.44;52366.56;5037407;28;20663;-75
2021/04/06 06:42:29;;;;;;;4.77;1.53;;;;;;;-144.99;97.57;52346.19;5035138;28;20648;-76
2021/04/06 06:44:55;;;;;;;6.60;2.23;;;;;;;-144.99;96.82;52340.06;5038617;28;20743;-78
2021/04/06 06:47:23;;;;;;;5.07;2.23;;;;;;;-144.99;96.39;52329.88;5039607;28;20733;-76
2021/04/06 06:49:53;;;;;;;11.00;2.27;;;;;;;-144.99;96.02;52329.88;5030483;28;20655;-77
2021/04/06 06:52:33;;;;;;;7.93;1.57;;;;;;;-144.99;94.46;52270.78;5031554;28;20624;-76
2021/04/06 06:55:15;;;;;;;6.73;2.67;;;;;;;-144.99;92.42;52364.53;5029192;28;20628;-75
2021/04/06 06:57:42;;;;;;;7.07;1.80;;;;;;;-144.99;92.44;52346.19;5031610;28;20616;-74
2021/04/06 07:00:18;;;;;;;7.30;1.63;;;;;;;-144.99;92.77;52317.66;5030568;28;20620;-73
2021/04/06 07:02:44;;;;;;;6.87;2.23;;;;;;;-144.99;92.86;52321.72;5028262;28;20644;-77
2021/04/06 07:05:19;;;;;;;6.70;2.13;;;;;;;-144.99;93.28;52362.50;5026069;28;21259;-75
2021/04/06 07:07:50;;;;;;;8.17;3.70;;;;;;;-144.99;93.19;52382.88;5026028;28;20648;-74
2021/04/06 07:10:18;;;;;;;7.37;1.40;;;;;;;-144.99;92.70;52362.50;5024805;28;20667;-76
2021/04/06 07:12:52;;;;;;;6.60;1.90;;;;;;;-144.99;92.91;52289.13;5025853;28;20632;-77
2021/04/06 07:15:18;;;;;;;6.80;2.40;;;;;;;-144.99;93.29;52362.50;5024499;28;20814;-77
2021/04/06 07:17:44;;;;;;;11.27;3.63;;;;;;;-144.99;93.96;52374.72;5024414;28;20640;-73
2021/04/06 07:20:16;;;;;;;7.03;3.43;;;;;;;-144.99;92.94;52333.94;5015624;28;20632;-75
2021/04/06 07:22:45;;;;;;;14.43;3.13;;;;;;;-144.99;93.31;52323.75;5024245;28;20687;-78
2021/04/06 07:25:12;;;;;;;12.17;2.43;;;;;;;-144.99;92.16;52342.09;5026384;28;20641;-75
2021/04/06 07:27:41;;;;;;;7.57;2.27;;;;;;;-144.99;91.00;52338.03;5025717;28;20672;-77
2021/04/06 07:30:11;;;;;;;5.37;1.80;;;;;;;-144.99;90.51;52338.03;5022402;28;20629;-75
2021/04/06 07:32:39;;;;;;;11.67;3.07;;;;;;;-144.99;89.84;52358.41;5025579;28;20621;-74
2021/04/06 07:35:06;;;;;;;13.67;1.43;;;;;;;-144.99;89.18;52333.94;5022476;28;20667;-75
2021/04/06 07:37:37;;;;;;;12.20;2.00;;;;;;;-144.99;89.53;52340.06;5022294;28;20676;-78
2021/04/06 07:40:08;;;;;;;5.70;1.40;;;;;;;-144.99;89.18;52374.72;5029498;28;20640;-75
2021/04/06 07:42:34;;;;;;;7.47;2.10;;;;;;;-144.99;89.82;52356.38;5022329;28;20633;-73
2021/04/06 07:45:00;;;;;;;6.63;2.10;;;;;;;-144.99;89.71;52354.34;5025272;28;20640;-78
2021/04/06 07:47:39;;;;;;;6.53;1.50;;;;;;;-144.99;89.92;52344.16;5021408;28;20676;-76
2021/04/06 07:50:12;;;;;;;8.03;1.40;;;;;;;-144.99;90.40;52386.94;5021273;28;20210;-75
2021/04/06 07:52:38;;;;;;;4.13;1.40;;;;;;;-144.99;90.69;52356.38;5021071;28;20631;-75
2021/04/06 07:55:05;;;;;;;10.07;2.20;;;;;;;-144.99;91.05;52382.88;5023157;28;20632;-73
2021/04/06 07:57:47;;;;;;;10.47;2.83;;;;;;;-144.99;91.56;52362.50;5027778;28;20624;-74
2021/04/06 08:00:49;;;;;;;7.03;1.73;;;;;;;-144.99;92.59;52366.56;5025338;28;20628;-76
2021/04/06 08:03:59;;;;;;;8.17;1.80;;;;;;;-144.99;93.92;52362.50;5020775;28;20632;-75
2021/04/06 08:06:27;;;;;;;9.73;2.00;;;;;;;-144.99;95.18;52374.72;5022567;28;20674;-74
2021/04/06 08:08:54;;;;;;;11.03;2.33;;;;;;;-144.99;95.74;52346.19;5021097;28;20679;-73
2021/04/06 08:11:21;;;;;;;7.73;2.23;;;;;;;-144.99;95.75;52325.81;5023100;28;20681;-74
2021/04/06 08:13:49;;;;;;;9.10;2.57;;;;;;;-144.99;95.56;52350.25;5020929;28;20661;-74
2021/04/06 08:16:20;;;;;;;11.53;2.00;;;;;;;-144.99;95.67;52338.03;5023646;28;20657;-76
2021/04/06 08:18:49;;;;;;;7.20;1.73;;;;;;;-144.99;95.27;52321.72;5015332;28;20661;-73
2021/04/06 08:21:15;;;;;;;6.03;2.27;;;;;;;-144.99;93.85;52329.88;5016205;28;20625;-74
2021/04/06 08:23:44;;;;;;;11.27;2.30;;;;;;;-144.99;93.16;52325.81;5018688;28;20747;-75
2021/04/06 08:26:31;;;;;;;10.73;2.70;;;;;;;-144.99;92.49;52342.09;5023057;28;20222;-73
2021/04/06 08:29:17;;;;;;;8.60;1.70;;;;;;;-144.99;91.14;52325.81;5018268;28;20657;-75
2021/04/06 08:31:43;;;;;;;8.67;1.70;;;;;;;-144.99;86.15;52301.34;5015077;28;20640;-73
2021/04/06 08:34:48;;;;;;;2.80;1.30;;;;;;;-144.99;83.38;52309.50;5022023;28;20633;-72
2021/04/06 08:37:17;;;;;;;4.97;1.40;;;;;;;-144.99;80.22;52301.34;5024496;28;20649;-74
2021/04/06 08:39:45;;;;;;;7.00;2.27;;;;;;;-144.99;78.63;52291.16;5022657;28;20632;-71
2021/04/06 08:42:17;;;;;;;5.50;1.17;;;;;;;-144.99;77.71;52268.72;5022673;28;20667;-74
2021/04/06 08:44:57;;;;;;;3.17;2.33;;;;;;;-144.99;76.55;52313.56;5018240;28;20640;-75
2021/04/06 08:47:51;;;;;;;10.40;3.57;;;;;;;-144.99;75.71;52297.25;5016132;28;20940;-75
2021/04/06 08:50:31;;;;;;;5.43;1.27;;;;;;;-144.99;75.11;52338.03;4989141;28;20655;-73
2021/04/06 08:52:58;;;;;;;2.50;0.90;;;;;;;-144.99;77.55;52340.06;5016525;28;20633;-72
2021/04/06 08:55:26;;;;;;;7.90;2.13;;;;;;;-144.99;81.53;52313.56;5019546;28;20640;-76
2021/04/06 08:57:56;;;;;;;5.20;1.10;;;;;;;-144.99;85.46;52333.94;5018739;28;20934;-73
2021/04/06 09:00:24;;;;;;;5.30;1.63;;;;;;;-144.99;86.52;52291.16;5021253;28;20636;-71
2021/04/06 09:03:01;;;;;;;2.47;1.03;;;;;;;-144.99;88.09;52293.19;5018273;28;21220;-71
2021/04/06 09:05:27;;;;;;;5.00;2.03;;;;;;;-144.99;89.34;52321.72;5016244;28;20671;-72
2021/04/06 09:07:53;;;;;;;13.13;1.73;;;;;;;-144.99;90.82;52342.09;5017155;28;20656;-73
2021/04/06 09:10:19;;;;;;;3.73;1.00;;;;;;;-144.99;91.30;52329.88;5022727;28;20660;-74
2021/04/06 09:12:50;;;;;;;2.53;0.97;;;;;;;-144.99;92.03;52362.50;5019939;28;20643;-73
2021/04/06 09:15:20;;;;;;;12.47;2.60;;;;;;;-144.99;92.56;52360.44;5018292;28;21027;-70
2021/04/06 09:17:46;;;;;;;8.40;1.70;;;;;;;-144.99;91.60;52285.03;5018758;28;20614;-73
2021/04/06 09:20:14;;;;;;;7.40;2.07;;;;;;;-144.99;90.14;52346.19;5016798;28;20628;-74
2021/04/06 09:22:42;;;;;;;5.67;1.50;;;;;;;-144.99;86.24;52309.50;5027263;28;20643;-75
2021/04/06 09:25:17;;;;;;;3.73;1.33;;;;;;;-144.99;84.12;52313.56;5023768;28;20635;-72
2021/04/06 09:27:52;;;;;;;3.30;1.23;;;;;;;-144.99;79.65;52264.66;5016037;28;20641;-71
2021/04/06 09:30:31;;;;;;;4.27;0.90;;;;;;;-144.99;75.72;52297.25;5019540;28;20628;-73
2021/04/06 09:32:57;;;;;;;8.50;1.63;;;;;;;-144.99;72.92;52240.19;5021322;28;20633;-74
2021/04/06 09:35:23;;;;;;;7.53;1.63;;;;;;;-144.99;68.94;52287.06;5014512;28;20633;-70
2021/04/06 09:37:50;;;;;;;4.60;1.73;;;;;;;-144.99;70.23;52299.31;5011602;28;21218;-72
2021/04/06 09:40:17;;;;;;;4.67;1.57;;;;;;;-144.99;71.85;52313.56;5023293;28;21247;-72
2021/04/06 09:42:43;;;;;;;6.53;1.87;;;;;;;-144.99;73.88;52313.56;5022117;28;21001;-74
2021/04/06 09:45:10;;;;;;;11.70;2.60;;;;;;;-144.99;74.96;52280.97;5019606;28;20625;-74
2021/04/06 09:47:37;;;;;;;2.50;0.70;;;;;;;-144.99;73.59;52317.66;5025180;28;20786;-73
2021/04/06 09:50:05;;;;;;;3.37;1.10;;;;;;;-144.99;71.81;52329.88;5015738;28;20629;-76
2021/04/06 09:52:32;;;;;;;4.23;1.23;;;;;;;-144.99;72.49;52338.03;5015196;28;20625;-72
2021/04/06 09:55:01;;;;;;;2.40;0.77;;;;;;;-144.99;71.10;52305.41;5024231;28;20941;-73
2021/04/06 09:57:33;;;;;;;3.37;0.70;;;;;;;-144.99;71.19;52299.31;5020364;28;20663;-74
2021/04/06 10:00:00;;;;;;;3.03;0.93;;;;;;;-144.99;71.98;52301.34;5019469;28;20865;-75
2021/04/06 10:02:29;;;;;;;1.40;0.70;;;;;;;-144.99;72.48;52313.56;5019536;28;20727;-74
2021/04/06 10:04:56;;;;;;;9.93;1.63;;;;;;;-144.99;72.36;52325.81;5022806;28;20644;-74
2021/04/06 10:07:25;;;;;;;2.70;0.93;;;;;;;-144.99;71.66;52256.50;5016952;28;20673;-74
2021/04/06 10:09:53;;;;;;;6.73;1.63;;;;;;;-144.99;68.79;52301.34;5013496;28;20649;-74
2021/04/06 10:12:21;;;;;;;9.00;1.30;;;;;;;-144.99;64.79;52248.34;5019791;28;20682;-74
2021/04/06 10:14:47;;;;;;;6.43;1.87;;;;;;;-144.99;62.72;52285.03;5018976;28;20626;-75
2021/04/06 10:17:17;;;;;;;5.77;1.70;;;;;;;-144.99;61.36;52280.97;5023883;28;20747;-74
2021/04/06 10:19:55;;;;;;;11.43;2.43;;;;;;;-144.99;61.04;52264.66;5028245;28;20643;-75
2021/04/06 10:22:22;;;;;;;8.70;1.80;;;;;;;-144.99;62.07;52250.38;5031585;28;20644;-75
2021/04/06 10:24:56;;;;;;;6.83;1.53;;;;;;;-144.99;61.93;52223.88;5030558;28;20764;-73
2021/04/06 10:27:25;;;;;;;4.63;2.00;;;;;;;-144.99;62.17;52207.59;5038060;28;20679;-74
2021/04/06 10:29:54;;;;;;;8.87;1.97;;;;;;;-144.99;64.65;52285.03;5042286;28;20198;-77
2021/04/06 10:32:27;;;;;;;4.53;3.33;;;;;;;-144.99;68.39;52315.59;5045970;28;20236;-75
2021/04/06 10:35:04;;;;;;;2.53;1.03;;;;;;;-144.99;72.27;52336.00;5033139;28;20202;-71
2021/04/06 10:37:45;;;;;;;7.50;1.60;;;;;;;-144.99;78.64;52333.94;5029807;28;20704;-76
2021/04/06 10:40:33;;;;;;;4.93;1.50;;;;;;;-144.99;81.34;52350.25;5027509;28;20636;-74
2021/04/06 10:43:04;;;;;;;4.37;1.40;;;;;;;-144.99;83.22;52415.47;5025431;28;21262;-74
2021/04/06 10:45:31;;;;;;;6.93;2.17;;;;;;;-144.99;85.23;52327.84;5026643;28;20699;-74
2021/04/06 10:48:11;;;;;;;12.87;3.73;;;;;;;-144.99;84.51;52354.34;5028719;28;20651;-75
2021/04/06 10:50:43;;;;;;;4.87;1.77;;;;;;;-144.99;85.28;52358.41;5023778;28;20640;-75
2021/04/06 10:53:21;;;;;;;6.60;2.20;;;;;;;-144.99;85.86;52346.19;5022198;28;20713;-75
2021/04/06 10:55:51;;;;;;;5.70;1.47;;;;;;;-144.99;84.86;52342.09;5025409;28;20648;-72
2021/04/06 10:58:23;;;;;;;8.20;2.00;;;;;;;-144.99;82.79;52342.09;5028628;28;20597;-75
2021/04/06 11:00:55;;;;;;;4.90;1.47;;;;;;;-144.99;79.17;52309.50;5027710;28;20640;-73
2021/04/06 11:03:22;;;;;;;4.70;2.33;;;;;;;-144.99;76.96;52203.50;5019020;28;20628;-74
2021/04/06 11:05:49;;;;;;;4.93;1.63;;;;;;;-144.99;74.80;52205.53;5029157;28;20667;-77
2021/04/06 11:08:19;;;;;;;6.00;1.70;;;;;;;-144.99;71.58;52195.34;5030332;28;20657;-76
2021/04/06 11:10:46;;;;;;;7.37;1.70;;;;;;;-144.99;69.84;52172.94;5030008;28;21061;-76
2021/04/06 11:13:12;;;;;;;4.23;1.67;;;;;;;-144.99;69.56;52146.44;5027813;28;21036;-74
2021/04/06 11:15:38;;;;;;;8.17;1.73;;;;;;;-144.99;66.21;52101.59;5017679;28;20657;-74
2021/04/06 11:18:05;;;;;;;5.93;1.87;;;;;;;-144.99;62.96;52101.59;5025893;28;21514;-72
2021/04/06 11:20:31;;;;;;;9.17;1.97;;;;;;;-144.99;61.52;52105.69;5020711;28;20689;-74
2021/04/06 11:22:57;;;;;;;7.97;2.50;;;;;;;-144.99;59.57;52130.13;5020964;28;20719;-74
2021/04/06 11:25:23;;;;;;;4.53;1.87;;;;;;;-144.99;62.55;52081.22;5021944;28;20218;-74